Главная страница
METAR-TAF:

METAR-TAF

Аэропорты :

Кастамону, Турция

широта: 41-19-01N, долгота: 33-47-46E, высота над уровнем моря: 1073 м

Текущие метеонаблюдения

Эта сводка был подготовлена 1 час и 23 минут назад, в 08:50 UTC
Ветер 4 Узел от южный-юго-западный, изменяющийся между восточный и юго-западный
Температура 18°C
Влажность 24%
Давление 1018 hPa
Видимость 10 км и более
Нет облачности ниже 1500 м, и нет кучево-дождевой облачности

METAR: LTAL 210850Z 21004KT 100V230 CAVOK 18/M03 Q1018

Время: 13:13 (10:13 UTC)

Прогноз

Эта сводка был подготовлена 2 часа и 33 минут назад, в 07:40 UTC
Прогноз действительный с 21-го 09 UTC до 21-го 18 UTC
Ветер 7 Узел от юго-западный
Видимость 10 км и более
Нет облачности ниже 1500 м, и нет кучево-дождевой облачности
изменения
С 21-го 12 UTC до 21-го 13 UTC
небольшая облачность на высоте 3400 фута

TAF: LTAL 210740Z 2109/2118 23007KT CAVOK BECMG 2112/2113 FEW034

Метеонаблюдения и прогнозы для более 4000 аэропортов (сводки METAR и TAF).

Имеющиеся станции представлены на карте желтыми и красными точками.

Чтобы увидеть название станции, наведите на нее мышь.

Затем щелкните, чтобы увидеть метеонаблюдения и метеопрогнозы.

Управление картой: чтобы увеличить масштаб, щелкните зеленые кнопки с черным крестиком; чтобы уменьшить масштаб, щелкните зеленую кнопку с тире; для просмотра соседних карт щелкайте зеленые стрелки.


METAR-TAF: